Time;durP1;ratioP1;P1;durP2;ratioP2;P2;SDS_P1;SDS_P2;PMS_P1;PMS_P2;Temp;Humidity;BMP_temperature;BMP_pressure;BME280_temperature;BME280_humidity;BME280_pressure;Samples;Min_cycle;Max_cycle;Signal;HPM_P1;HPM_P2
2023/05/11 00:00:04;;;;;;;;;;;;;;;13.91;83.56;98584.53;5040642;28;19944;-81
2023/05/11 00:02:29;;;;;;;;;;;;;;;13.84;83.40;98575.97;5029247;28;19940;-81
2023/05/11 00:04:54;;;;;;;;;;;;;;;13.91;83.27;98577.25;5031166;28;20015;-81
2023/05/11 00:07:20;;;;;;;;;;;;;;;13.86;83.15;98585.34;5032431;28;20011;-81
2023/05/11 00:09:45;;;;;;;;;;;;;;;13.81;83.62;98585.38;5048048;28;19967;-81
2023/05/11 00:12:11;;;;;;;;;;;;;;;13.78;83.30;98590.50;5044281;28;20291;-81
2023/05/11 00:14:36;;;;;;;;;;;;;;;13.75;83.25;98577.63;5041013;28;19921;-81
2023/05/11 00:17:02;;;;;;;;;;;;;;;13.76;83.71;98589.97;5046111;28;19928;-81
2023/05/11 00:19:30;;;;;;;;;;;;;;;13.68;83.40;98587.84;5029321;28;19927;-81
2023/05/11 00:21:55;;;;;;;;;;;;;;;13.73;83.33;98587.81;5030284;28;20368;-81
2023/05/11 00:24:20;;;;;;;;;;;;;;;13.67;83.53;98583.56;5028147;28;19959;-81
2023/05/11 00:26:45;;;;;;;;;;;;;;;13.65;83.43;98585.72;5041077;28;19921;-81
2023/05/11 00:29:11;;;;;;;;;;;;;;;13.66;83.78;98584.63;5026259;28;20015;-81
2023/05/11 00:31:36;;;;;;;;;;;;;;;13.70;83.28;98581.13;5028353;28;19924;-81
2023/05/11 00:34:01;;;;;;;;;;;;;;;13.75;83.31;98585.66;5040715;28;19925;-81
2023/05/11 00:36:27;;;;;;;;;;;;;;;13.76;83.16;98587.28;5044274;28;19921;-81
2023/05/11 00:38:52;;;;;;;;;;;;;;;13.61;83.56;98576.63;5025664;28;19925;-81
2023/05/11 00:41:17;;;;;;;;;;;;;;;13.66;83.67;98585.44;5045547;28;19972;-81
2023/05/11 00:43:42;;;;;;;;;;;;;;;13.64;83.70;98589.47;5043988;28;19939;-81
2023/05/11 00:46:08;;;;;;;;;;;;;;;13.65;83.37;98580.34;5026500;28;20011;-81
2023/05/11 00:48:33;;;;;;;;;;;;;;;13.64;83.53;98581.41;5021109;28;19972;-81
2023/05/11 00:50:59;;;;;;;;;;;;;;;13.59;83.69;98576.88;5009352;28;19925;-81
2023/05/11 00:53:24;;;;;;;;;;;;;;;13.60;83.39;98577.69;5024838;28;20296;-81
2023/05/11 00:55:50;;;;;;;;;;;;;;;13.64;83.94;98576.06;5043997;28;19971;-81
2023/05/11 00:58:15;;;;;;;;;;;;;;;13.62;84.07;98580.91;5023655;28;20003;-82
2023/05/11 01:00:40;;;;;;;;;;;;;;;13.65;83.77;98572.31;5042251;28;20369;-81
2023/05/11 01:03:06;;;;;;;;;;;;;;;13.64;83.63;98576.06;5028376;28;20031;-81
2023/05/11 01:05:58;;;;;;;;;;;;;;;13.64;83.37;98568.00;5033671;28;20019;-81
2023/05/11 01:08:31;;;;;;;;;;;;;;;13.63;83.75;98574.47;5012856;28;19923;-81
2023/05/11 01:11:18;;;;;;;;;;;;;;;13.79;83.40;98570.63;5042065;28;19924;-81
2023/05/11 01:13:47;;;;;;;;;;;;;;;13.64;83.46;98570.69;5042253;28;19921;-81
2023/05/11 01:16:20;;;;;;;;;;;;;;;13.60;83.52;98575.00;5043981;28;19916;-81
2023/05/11 01:18:45;;;;;;;;;;;;;;;13.53;84.05;98578.78;5025357;28;19925;-81
2023/05/11 01:21:10;;;;;;;;;;;;;;;13.57;84.07;98580.91;5026707;28;19924;-81
2023/05/11 01:24:08;;;;;;;;;;;;;;;13.63;83.58;98583.28;5026866;28;19928;-81
2023/05/11 01:26:52;;;;;;;;;;;;;;;13.60;83.67;98575.00;5004584;28;20474;-82
2023/05/11 01:29:20;;;;;;;;;;;;;;;13.56;83.93;98579.31;5044818;28;19917;-81
2023/05/11 01:31:46;;;;;;;;;;;;;;;13.54;83.91;98575.00;5044639;28;19978;-81
2023/05/11 01:34:13;;;;;;;;;;;;;;;13.59;83.86;98573.38;5029481;28;19970;-81
2023/05/11 01:36:43;;;;;;;;;;;;;;;13.49;84.23;98569.69;5044138;28;19975;-81
2023/05/11 01:39:09;;;;;;;;;;;;;;;13.52;84.36;98573.69;5022143;28;19931;-81
2023/05/11 01:41:35;;;;;;;;;;;;;;;13.55;84.00;98575.81;5043544;28;19928;-81
2023/05/11 01:44:03;;;;;;;;;;;;;;;13.49;84.27;98580.41;5022480;28;19966;-82
2023/05/11 01:46:30;;;;;;;;;;;;;;;13.54;84.55;98574.25;5026792;28;19924;-81
2023/05/11 01:48:58;;;;;;;;;;;;;;;13.49;84.45;98575.06;5042682;28;19923;-81
2023/05/11 01:51:26;;;;;;;;;;;;;;;13.53;84.53;98576.09;5007167;28;20018;-81
2023/05/11 01:53:52;;;;;;;;;;;;;;;13.63;84.21;98579.84;5041852;28;19994;-81
2023/05/11 01:56:20;;;;;;;;;;;;;;;13.61;84.45;98579.31;5021323;28;19963;-82
2023/05/11 01:58:47;;;;;;;;;;;;;;;13.55;84.08;98581.19;5034677;28;20287;-82
2023/05/11 02:01:13;;;;;;;;;;;;;;;13.55;84.36;98578.50;5021990;28;20300;-81
2023/05/11 02:03:40;;;;;;;;;;;;;;;13.53;84.58;98576.09;5016883;28;19933;-81
2023/05/11 02:06:06;;;;;;;;;;;;;;;13.58;84.58;98577.16;5032780;28;20020;-82
2023/05/11 02:08:32;;;;;;;;;;;;;;;13.67;84.16;98576.31;5039711;28;19920;-81
2023/05/11 02:10:58;;;;;;;;;;;;;;;13.63;84.43;98572.56;5020317;28;19962;-81
2023/05/11 02:13:23;;;;;;;;;;;;;;;13.65;84.04;98583.03;5037001;28;19917;-81
2023/05/11 02:15:51;;;;;;;;;;;;;;;13.62;84.51;98584.38;5023222;28;19927;-81
2023/05/11 02:18:18;;;;;;;;;;;;;;;13.57;84.55;98578.22;5025347;28;19971;-81
2023/05/11 02:20:44;;;;;;;;;;;;;;;13.49;84.84;98577.72;5038539;28;19935;-81
2023/05/11 02:23:10;;;;;;;;;;;;;;;13.57;84.48;98580.91;5022927;28;19921;-81
2023/05/11 02:25:36;;;;;;;;;;;;;;;13.46;84.82;98575.59;5035023;28;20003;-81
2023/05/11 02:28:02;;;;;;;;;;;;;;;13.49;84.99;98575.06;5007257;28;20407;-81
2023/05/11 02:30:30;;;;;;;;;;;;;;;13.44;84.85;98577.75;5027951;28;19917;-81
2023/05/11 02:32:57;;;;;;;;;;;;;;;13.54;84.38;98583.06;5025058;28;19917;-81
2023/05/11 02:35:24;;;;;;;;;;;;;;;13.58;84.10;98574.47;5021637;28;19921;-81
2023/05/11 02:37:52;;;;;;;;;;;;;;;13.55;84.86;98583.88;5045513;28;19923;-81
2023/05/11 02:40:19;;;;;;;;;;;;;;;13.48;85.01;98584.16;5043681;28;20456;-81
2023/05/11 02:42:46;;;;;;;;;;;;;;;13.50;84.56;98576.66;5041008;28;19917;-81
2023/05/11 02:45:15;;;;;;;;;;;;;;;13.53;84.58;98577.97;5022548;28;19921;-80
2023/05/11 02:47:50;;;;;;;;;;;;;;;13.47;84.69;98585.25;5036121;28;20511;-81
2023/05/11 02:50:17;;;;;;;;;;;;;;;13.54;84.75;98582.28;5040965;28;19921;-81
2023/05/11 02:52:44;;;;;;;;;;;;;;;13.51;84.76;98582.81;5024491;28;19925;-81
2023/05/11 02:55:10;;;;;;;;;;;;;;;13.51;84.79;98585.50;5029698;28;19917;-81
2023/05/11 02:57:36;;;;;;;;;;;;;;;13.49;84.82;98580.41;5024419;28;19943;-81
2023/05/11 03:00:02;;;;;;;;;;;;;;;13.49;85.00;98580.41;5046338;28;19920;-81
2023/05/11 03:02:27;;;;;;;;;;;;;;;13.38;84.84;98589.56;5040937;28;20411;-81
2023/05/11 03:04:53;;;;;;;;;;;;;;;13.45;85.23;98586.59;5040877;28;19933;-81
2023/05/11 03:07:18;;;;;;;;;;;;;;;13.45;84.91;98584.69;5025623;28;19931;-81
2023/05/11 03:09:43;;;;;;;;;;;;;;;13.42;84.83;98585.25;5030255;28;20396;-81
2023/05/11 03:12:09;;;;;;;;;;;;;;;13.35;84.97;98586.59;5023775;28;20380;-81
2023/05/11 03:14:35;;;;;;;;;;;;;;;13.43;84.76;98583.38;5027632;28;20019;-81
2023/05/11 03:17:01;;;;;;;;;;;;;;;13.40;85.00;98586.59;5033630;28;19921;-81
2023/05/11 03:19:27;;;;;;;;;;;;;;;13.33;85.60;98578.84;5051112;28;19927;-81
2023/05/11 03:21:53;;;;;;;;;;;;;;;13.37;85.03;98582.59;5048768;28;19917;-81
2023/05/11 03:24:18;;;;;;;;;;;;;;;13.33;85.20;98581.53;5029614;28;19929;-81
2023/05/11 03:26:44;;;;;;;;;;;;;;;13.32;84.87;98581.81;5050820;28;19920;-81
2023/05/11 03:29:10;;;;;;;;;;;;;;;13.32;85.47;98571.09;5052252;28;19928;-81
2023/05/11 03:31:35;;;;;;;;;;;;;;;13.29;85.25;98579.66;5017198;28;19920;-81
2023/05/11 03:34:01;;;;;;;;;;;;;;;13.35;85.10;98576.69;5047136;28;19924;-81
2023/05/11 03:36:26;;;;;;;;;;;;;;;13.30;85.09;98587.41;5018170;28;19921;-81
2023/05/11 03:38:55;;;;;;;;;;;;;;;13.28;85.34;98580.75;5032500;28;19921;-81
2023/05/11 03:41:21;;;;;;;;;;;;;;;13.31;85.31;98582.88;5050524;28;20564;-81
2023/05/11 03:43:48;;;;;;;;;;;;;;;13.25;85.76;98579.41;5051656;28;20338;-81
2023/05/11 03:46:16;;;;;;;;;;;;;;;13.24;85.42;98569.75;5012054;28;19929;-81
2023/05/11 03:48:42;;;;;;;;;;;;;;;13.23;85.58;98570.84;5039986;28;20034;-81
2023/05/11 03:51:08;;;;;;;;;;;;;;;13.26;85.54;98574.84;5049340;28;20936;-81
2023/05/11 03:53:34;;;;;;;;;;;;;;;13.24;85.61;98572.44;5027534;28;19929;-81
2023/05/11 03:56:00;;;;;;;;;;;;;;;13.25;85.54;98573.25;5016975;28;19925;-81
2023/05/11 03:58:25;;;;;;;;;;;;;;;13.27;85.63;98568.41;5047269;28;19924;-81
2023/05/11 04:00:51;;;;;;;;;;;;;;;13.27;85.69;98571.09;5045319;28;19920;-81
2023/05/11 04:03:16;;;;;;;;;;;;;;;13.35;85.58;98573.19;5023547;28;21009;-80
2023/05/11 04:05:42;;;;;;;;;;;;;;;13.37;85.60;98571.88;5027675;28;19921;-80
2023/05/11 04:08:08;;;;;;;;;;;;;;;13.41;85.49;98570.22;5011628;28;19929;-81
2023/05/11 04:10:33;;;;;;;;;;;;;;;13.34;85.48;98567.06;5028622;28;20671;-81
2023/05/11 04:12:59;;;;;;;;;;;;;;;13.28;85.83;98572.72;5033446;28;19929;-81
2023/05/11 04:15:24;;;;;;;;;;;;;;;13.40;85.69;98565.97;5025715;28;19920;-81
2023/05/11 04:17:49;;;;;;;;;;;;;;;13.39;85.47;98575.06;5028319;28;19921;-80
2023/05/11 04:20:14;;;;;;;;;;;;;;;13.39;85.90;98574.25;5046663;28;19979;-81
2023/05/11 04:22:40;;;;;;;;;;;;;;;13.43;85.86;98573.44;5039499;28;19963;-80
2023/05/11 04:25:05;;;;;;;;;;;;;;;13.41;85.86;98570.22;5042691;28;19960;-80
2023/05/11 04:27:34;;;;;;;;;;;;;;;13.42;85.63;98574.53;5044614;28;19921;-80
2023/05/11 04:29:59;;;;;;;;;;;;;;;13.35;85.96;98568.66;5018670;28;19917;-80
2023/05/11 04:32:25;;;;;;;;;;;;;;;13.30;86.05;98576.69;5044025;28;20281;-80
2023/05/11 04:34:50;;;;;;;;;;;;;;;13.30;85.95;98573.25;5044252;28;21214;-80
2023/05/11 04:37:15;;;;;;;;;;;;;;;13.35;86.10;98571.34;5042587;28;19925;-80
2023/05/11 04:39:40;;;;;;;;;;;;;;;13.30;85.92;98576.69;5004512;28;19920;-80
2023/05/11 04:42:06;;;;;;;;;;;;;;;13.30;86.21;98576.69;5028222;28;19925;-81
2023/05/11 04:44:31;;;;;;;;;;;;;;;13.31;86.04;98580.19;5049281;28;19924;-80
2023/05/11 04:46:56;;;;;;;;;;;;;;;13.32;86.00;98581.81;5047807;28;19921;-81
2023/05/11 04:49:21;;;;;;;;;;;;;;;13.21;86.76;98581.03;5029268;28;19968;-81
2023/05/11 04:51:47;;;;;;;;;;;;;;;13.06;87.28;98581.03;5024485;28;19924;-80
2023/05/11 04:54:12;;;;;;;;;;;;;;;13.15;87.50;98581.31;5004915;28;19920;-80
2023/05/11 04:56:39;;;;;;;;;;;;;;;12.90;88.61;98582.13;5023604;28;19917;-81
2023/05/11 04:59:05;;;;;;;;;;;;;;;12.42;91.32;98583.47;5028145;28;20396;-80
2023/05/11 05:01:30;;;;;;;;;;;;;;;13.08;88.25;98586.97;5027838;28;19916;-81
2023/05/11 05:03:55;;;;;;;;;;;;;;;13.26;87.10;98591.72;5015539;28;19928;-81
2023/05/11 05:06:20;;;;;;;;;;;;;;;13.18;87.01;98592.28;5031869;28;20011;-81
2023/05/11 05:08:46;;;;;;;;;;;;;;;12.75;89.75;98598.19;5031528;28;19967;-80
2023/05/11 05:11:11;;;;;;;;;;;;;;;13.10;87.97;98590.16;5031389;28;19928;-80
2023/05/11 05:13:36;;;;;;;;;;;;;;;13.18;87.98;98600.31;5030383;28;19921;-81
2023/05/11 05:16:03;;;;;;;;;;;;;;;13.25;87.21;98597.38;5045513;28;20015;-80
2023/05/11 05:18:28;;;;;;;;;;;;;;;13.07;88.07;98600.59;5045914;28;19964;-80
2023/05/11 05:20:53;;;;;;;;;;;;;;;13.17;87.78;98606.75;5031269;28;20360;-80
2023/05/11 05:23:18;;;;;;;;;;;;;;;13.24;87.65;98598.44;5046380;28;19928;-80
2023/05/11 05:25:44;;;;;;;;;;;;;;;13.32;87.03;98600.56;5012126;28;20011;-81
2023/05/11 05:28:09;;;;;;;;;;;;;;;12.99;88.87;98601.13;5045652;28;19921;-80
2023/05/11 05:30:35;;;;;;;;;;;;;;;12.51;91.36;98602.47;5046515;28;19925;-80
2023/05/11 05:33:01;;;;;;;;;;;;;;;12.94;89.67;98603.81;5030574;28;19962;-80
2023/05/11 05:35:26;;;;;;;;;;;;;;;13.10;88.91;98598.22;5026219;28;19928;-81
2023/05/11 05:37:51;;;;;;;;;;;;;;;13.08;88.86;98597.69;5032978;28;19947;-80
2023/05/11 05:40:16;;;;;;;;;;;;;;;13.26;87.73;98601.63;5034303;28;19921;-80
2023/05/11 05:42:42;;;;;;;;;;;;;;;12.59;91.94;98600.06;5050026;28;19923;-80
2023/05/11 05:45:07;;;;;;;;;;;;;;;12.56;92.19;98602.47;5027745;28;19921;-80
2023/05/11 05:47:32;;;;;;;;;;;;;;;12.18;94.24;98605.63;5023974;28;20052;-80
2023/05/11 05:49:58;;;;;;;;;;;;;;;11.93;95.32;98604.50;5032380;28;19963;-80
2023/05/11 05:52:23;;;;;;;;;;;;;;;11.54;96.88;98621.94;5021315;28;19974;-80
2023/05/11 05:54:49;;;;;;;;;;;;;;;12.10;95.65;98619.53;5026379;28;19960;-80
2023/05/11 05:57:14;;;;;;;;;;;;;;;11.81;96.04;98611.13;5030543;28;20373;-80
2023/05/11 05:59:39;;;;;;;;;;;;;;;11.57;97.80;98621.44;5048295;28;20013;-80
2023/05/11 06:02:05;;;;;;;;;;;;;;;11.54;97.87;98615.78;5030641;28;19920;-80
2023/05/11 06:04:30;;;;;;;;;;;;;;;11.82;98.25;98621.56;5031646;28;19924;-80
2023/05/11 06:06:56;;;;;;;;;;;;;;;12.35;95.20;98623.06;5032561;28;20419;-80
2023/05/11 06:09:22;;;;;;;;;;;;;;;12.83;91.89;98621.75;5028025;28;19924;-80
2023/05/11 06:11:47;;;;;;;;;;;;;;;12.82;91.22;98624.72;5011655;28;19921;-80
2023/05/11 06:14:12;;;;;;;;;;;;;;;12.48;92.90;98625.22;5017962;28;19920;-80
2023/05/11 06:16:37;;;;;;;;;;;;;;;12.02;95.20;98626.19;5044847;28;20003;-80
2023/05/11 06:19:03;;;;;;;;;;;;;;;12.22;95.99;98628.09;5050713;28;19925;-80
2023/05/11 06:21:28;;;;;;;;;;;;;;;12.85;92.35;98624.97;5047385;28;19929;-80
2023/05/11 06:23:53;;;;;;;;;;;;;;;13.15;90.04;98624.97;5048827;28;19929;-80
2023/05/11 06:26:18;;;;;;;;;;;;;;;12.56;92.44;98623.88;5028004;28;20389;-80
2023/05/11 06:28:44;;;;;;;;;;;;;;;12.99;90.99;98623.38;5031861;28;19924;-80
2023/05/11 06:31:09;;;;;;;;;;;;;;;13.16;90.29;98623.91;5033369;28;19921;-80
2023/05/11 06:33:34;;;;;;;;;;;;;;;12.95;91.70;98626.84;5032776;28;19921;-80
2023/05/11 06:36:04;;;;;;;;;;;;;;;12.74;93.08;98620.69;5031142;28;20373;-80
2023/05/11 06:38:29;;;;;;;;;;;;;;;12.40;94.71;98623.06;5033171;28;19920;-80
2023/05/11 06:40:55;;;;;;;;;;;;;;;12.26;96.59;98623.84;5048195;28;19921;-80
2023/05/11 06:43:20;;;;;;;;;;;;;;;12.77;93.45;98620.16;5013840;28;19929;-80
2023/05/11 06:45:45;;;;;;;;;;;;;;;12.27;96.12;98620.09;5010834;28;20059;-80
2023/05/11 06:48:11;;;;;;;;;;;;;;;12.31;96.83;98621.19;4999633;28;19968;-80
2023/05/11 06:50:36;;;;;;;;;;;;;;;12.16;97.59;98623.81;5019822;28;19929;-80
2023/05/11 06:53:01;;;;;;;;;;;;;;;12.20;96.50;98625.72;5029181;28;20340;-80
2023/05/11 06:55:26;;;;;;;;;;;;;;;12.48;96.12;98622.53;5050216;28;20261;-80
2023/05/11 06:57:52;;;;;;;;;;;;;;;12.66;95.56;98629.25;5015830;28;19917;-80
2023/05/11 07:00:17;;;;;;;;;;;;;;;12.88;94.51;98621.78;5030904;28;19943;-80
2023/05/11 07:02:42;;;;;;;;;;;;;;;13.26;91.84;98628.44;5032035;28;20403;-80
2023/05/11 07:05:08;;;;;;;;;;;;;;;13.58;88.47;98625.44;5031677;28;19944;-80
2023/05/11 07:07:33;;;;;;;;;;;;;;;13.50;90.39;98626.78;5031357;28;19921;-80
2023/05/11 07:09:58;;;;;;;;;;;;;;;13.06;93.67;98625.81;5051443;28;19921;-80
2023/05/11 07:12:24;;;;;;;;;;;;;;;13.31;91.65;98631.94;5033350;28;19928;-80
2023/05/11 07:14:49;;;;;;;;;;;;;;;13.71;88.39;98616.81;5032982;28;19923;-80
2023/05/11 07:17:15;;;;;;;;;;;;;;;13.56;89.30;98627.59;5031457;28;19917;-80
2023/05/11 07:19:40;;;;;;;;;;;;;;;13.20;91.91;98630.34;5031051;28;20384;-80
2023/05/11 07:22:05;;;;;;;;;;;;;;;12.91;94.19;98623.91;5015066;28;20380;-80
2023/05/11 07:24:30;;;;;;;;;;;;;;;13.12;94.34;98628.22;5015338;28;19933;-80
2023/05/11 07:26:56;;;;;;;;;;;;;;;12.99;94.39;98628.72;5049226;28;20369;-80
2023/05/11 07:29:21;;;;;;;;;;;;;;;13.32;92.12;98630.06;5050652;28;19923;-80
2023/05/11 07:31:47;;;;;;;;;;;;;;;13.82;89.05;98637.97;5031758;28;19959;-80
2023/05/11 07:34:12;;;;;;;;;;;;;;;13.67;89.62;98639.88;5031342;28;19982;-80
2023/05/11 07:36:37;;;;;;;;;;;;;;;13.29;92.04;98633.28;5042330;28;19940;-80
2023/05/11 07:39:03;;;;;;;;;;;;;;;12.57;94.92;98633.53;5017938;28;20410;-80
2023/05/11 07:41:28;;;;;;;;;;;;;;;12.32;96.07;98628.94;5053756;28;19943;-80
2023/05/11 07:43:53;;;;;;;;;;;;;;;12.80;94.75;98630.31;5053534;28;19968;-80
2023/05/11 07:46:19;;;;;;;;;;;;;;;13.08;94.27;98631.69;5050000;28;19917;-80
2023/05/11 07:48:45;;;;;;;;;;;;;;;13.48;91.26;98624.38;5050163;28;19924;-80
2023/05/11 07:51:10;;;;;;;;;;;;;;;13.18;93.15;98627.13;5016889;28;20314;-80
2023/05/11 07:53:35;;;;;;;;;;;;;;;13.77;89.50;98634.47;5033873;28;19955;-80
2023/05/11 07:56:02;;;;;;;;;;;;;;;13.92;89.36;98629.06;5054234;28;20447;-80
2023/05/11 07:58:27;;;;;;;;;;;;;;;13.39;91.54;98623.31;5052801;28;20505;-80
2023/05/11 08:00:53;;;;;;;;;;;;;;;13.27;94.00;98627.38;5034944;28;19967;-80
2023/05/11 08:03:18;;;;;;;;;;;;;;;13.19;93.08;98627.94;5030274;28;19929;-80
2023/05/11 08:05:43;;;;;;;;;;;;;;;12.87;94.46;98620.16;5033946;28;19925;-80
2023/05/11 08:08:09;;;;;;;;;;;;;;;13.57;92.16;98629.16;5036458;28;19928;-80
2023/05/11 08:10:35;;;;;;;;;;;;;;;13.54;92.55;98633.22;5035539;28;19925;-80
2023/05/11 08:13:00;;;;;;;;;;;;;;;13.96;89.25;98624.72;5034382;28;19968;-80
2023/05/11 08:15:25;;;;;;;;;;;;;;;13.90;90.56;98623.97;5015942;28;19963;-80
2023/05/11 08:17:51;;;;;;;;;;;;;;;13.41;92.53;98633.81;5035989;28;20368;-80
2023/05/11 08:20:16;;;;;;;;;;;;;;;13.14;93.15;98630.63;5035799;28;19972;-80
2023/05/11 08:22:41;;;;;;;;;;;;;;;13.29;93.22;98634.09;5020457;28;20411;-80
2023/05/11 08:25:07;;;;;;;;;;;;;;;13.32;92.61;98625.47;5016962;28;19933;-80
2023/05/11 08:27:32;;;;;;;;;;;;;;;13.04;93.78;98626.03;5036040;28;20016;-80
2023/05/11 08:29:57;;;;;;;;;;;;;;;12.80;94.81;98633.00;5032915;28;19921;-80
2023/05/11 08:32:23;;;;;;;;;;;;;;;12.98;95.93;98632.47;5033826;28;20023;-80
2023/05/11 08:34:48;;;;;;;;;;;;;;;13.09;96.76;98633.28;5032212;28;19928;-80
2023/05/11 08:37:13;;;;;;;;;;;;;;;13.05;95.91;98632.22;5033923;28;19928;-80
2023/05/11 08:39:38;;;;;;;;;;;;;;;13.29;95.52;98620.69;5032938;28;19924;-80
2023/05/11 08:42:05;;;;;;;;;;;;;;;13.02;95.08;98628.19;5035539;28;19921;-80
2023/05/11 08:44:31;;;;;;;;;;;;;;;12.86;95.61;98633.81;5035624;28;20023;-80
2023/05/11 08:46:58;;;;;;;;;;;;;;;12.98;96.41;98634.34;5043209;28;19951;-80
2023/05/11 08:49:24;;;;;;;;;;;;;;;13.04;95.55;98628.72;5034438;28;20392;-80
2023/05/11 08:51:49;;;;;;;;;;;;;;;13.26;94.59;98629.25;5030631;28;19925;-80
2023/05/11 08:54:14;;;;;;;;;;;;;;;13.12;95.14;98636.25;5049229;28;20352;-80
2023/05/11 08:56:40;;;;;;;;;;;;;;;12.96;95.66;98636.47;5042776;28;19927;-80
2023/05/11 08:59:06;;;;;;;;;;;;;;;13.32;94.92;98628.16;5051216;28;19916;-80
2023/05/11 09:01:33;;;;;;;;;;;;;;;13.15;95.33;98630.34;5033613;28;19921;-80
2023/05/11 09:03:59;;;;;;;;;;;;;;;13.14;95.77;98638.66;5034132;28;20372;-80
2023/05/11 09:06:25;;;;;;;;;;;;;;;13.29;95.49;98633.28;5053169;28;19956;-80
2023/05/11 09:08:51;;;;;;;;;;;;;;;12.90;95.85;98633.00;5050610;28;20391;-80
2023/05/11 09:11:17;;;;;;;;;;;;;;;13.06;97.19;98634.63;5035961;28;19924;-80
2023/05/11 09:13:42;;;;;;;;;;;;;;;13.35;97.24;98630.31;5033645;28;20004;-80
2023/05/11 09:16:07;;;;;;;;;;;;;;;13.71;94.90;98624.84;5031487;28;20399;-80
2023/05/11 09:18:32;;;;;;;;;;;;;;;13.52;95.33;98624.63;5045528;28;19970;-80
2023/05/11 09:20:59;;;;;;;;;;;;;;;13.58;95.74;98626.25;5051174;28;20368;-80
2023/05/11 09:23:25;;;;;;;;;;;;;;;13.77;93.42;98624.56;5052701;28;20011;-80
2023/05/11 09:25:51;;;;;;;;;;;;;;;13.42;93.69;98621.97;5046261;28;20291;-80
2023/05/11 09:28:19;;;;;;;;;;;;;;;13.51;94.46;98615.81;5016584;28;19921;-80
2023/05/11 09:30:44;;;;;;;;;;;;;;;13.69;95.42;98625.13;5030130;28;20003;-80
2023/05/11 09:33:10;;;;;;;;;;;;;;;13.65;94.38;98613.31;5048846;28;20031;-80
2023/05/11 09:35:35;;;;;;;;;;;;;;;13.50;94.32;98611.50;5047607;28;20364;-80
2023/05/11 09:38:11;;;;;;;;;;;;;;;14.02;94.49;98626.34;5031861;28;19931;-80
2023/05/11 09:40:36;;;;;;;;;;;;;;;14.39;93.18;98609.78;5049223;28;20308;-80
2023/05/11 09:43:02;;;;;;;;;;;;;;;13.78;91.27;98620.00;5050090;28;19924;-81
2023/05/11 09:45:41;;;;;;;;;;;;;;;14.00;94.23;98623.13;5050029;28;19917;-80
2023/05/11 09:48:12;;;;;;;;;;;;;;;14.00;93.35;98618.53;5048599;28;19921;-80
2023/05/11 09:50:37;;;;;;;;;;;;;;;14.26;93.35;98613.88;5033309;28;19917;-80
2023/05/11 09:53:03;;;;;;;;;;;;;;;14.06;90.45;98622.03;5032204;28;20035;-80
2023/05/11 09:55:28;;;;;;;;;;;;;;;14.08;91.08;98614.50;5030107;28;20352;-80
2023/05/11 09:57:54;;;;;;;;;;;;;;;14.06;91.03;98624.69;5030042;28;19983;-80
2023/05/11 10:00:20;;;;;;;;;;;;;;;14.26;92.44;98614.63;5049446;28;19917;-80
2023/05/11 10:02:57;;;;;;;;;;;;;;;14.67;91.28;98611.72;5051893;28;20422;-81
2023/05/11 10:05:22;;;;;;;;;;;;;;;14.73;91.35;98608.72;5033363;28;20339;-81
2023/05/11 10:07:55;;;;;;;;;;;;;;;14.63;89.45;98608.81;5016406;28;19924;-80
2023/05/11 10:10:20;;;;;;;;;;;;;;;14.72;90.07;98609.78;5050420;28;19923;-81
2023/05/11 10:12:45;;;;;;;;;;;;;;;14.98;90.63;98607.72;5033471;28;20370;-80
2023/05/11 10:15:11;;;;;;;;;;;;;;;14.65;87.50;98603.97;5031669;28;20295;-81
2023/05/11 10:17:37;;;;;;;;;;;;;;;14.63;87.85;98595.38;5032762;28;20012;-81
2023/05/11 10:20:03;;;;;;;;;;;;;;;14.35;86.95;98598.78;5032232;28;20023;-80
2023/05/11 10:22:29;;;;;;;;;;;;;;;14.56;88.52;98599.44;5030538;28;19970;-80
2023/05/11 10:24:58;;;;;;;;;;;;;;;14.68;87.85;98600.69;5048879;28;19925;-80
2023/05/11 10:27:24;;;;;;;;;;;;;;;14.76;85.92;98596.63;5030978;28;19923;-81
2023/05/11 10:29:50;;;;;;;;;;;;;;;14.41;85.56;98596.88;5048755;28;20368;-80
2023/05/11 10:32:16;;;;;;;;;;;;;;;14.84;88.50;98590.63;5049308;28;19917;-81
2023/05/11 10:34:41;;;;;;;;;;;;;;;14.76;86.99;98593.94;5048333;28;19917;-81
2023/05/11 10:37:07;;;;;;;;;;;;;;;15.19;87.96;98589.50;5048495;28;20388;-81
2023/05/11 10:39:36;;;;;;;;;;;;;;;15.51;86.61;98589.72;5030487;28;20488;-81
2023/05/11 10:42:12;;;;;;;;;;;;;;;15.47;87.09;98578.72;5030411;28;19921;-81
2023/05/11 10:44:39;;;;;;;;;;;;;;;15.48;86.64;98584.91;5032302;28;19920;-81
2023/05/11 10:47:23;;;;;;;;;;;;;;;15.73;84.87;98588.09;5027678;28;20007;-81
2023/05/11 10:49:48;;;;;;;;;;;;;;;15.36;85.13;98582.59;5051353;28;20007;-81
2023/05/11 10:52:22;;;;;;;;;;;;;;;15.06;84.90;98592.84;5051204;28;20415;-81
2023/05/11 10:55:17;;;;;;;;;;;;;;;15.34;86.88;98589.34;5048813;28;19916;-81
2023/05/11 10:57:46;;;;;;;;;;;;;;;14.86;85.75;98585.75;5031351;28;20316;-81
2023/05/11 11:00:12;;;;;;;;;;;;;;;15.24;85.90;98584.06;5031383;28;19939;-81
2023/05/11 11:02:38;;;;;;;;;;;;;;;15.16;84.85;98582.78;5033397;28;19959;-81
2023/05/11 11:05:08;;;;;;;;;;;;;;;14.81;84.32;98580.44;5029607;28;19925;-81
2023/05/11 11:07:52;;;;;;;;;;;;;;;14.51;87.19;98578.81;5032439;28;20016;-81
2023/05/11 11:10:28;;;;;;;;;;;;;;;14.52;87.34;98582.28;5049886;28;19920;-81
2023/05/11 11:13:00;;;;;;;;;;;;;;;14.45;87.65;98584.50;5052952;28;20272;-81
2023/05/11 11:15:45;;;;;;;;;;;;;;;14.21;88.64;98589.72;5053954;28;19925;-81
2023/05/11 11:18:24;;;;;;;;;;;;;;;14.21;88.75;98590.53;5054764;28;19924;-81
2023/05/11 11:20:59;;;;;;;;;;;;;;;14.60;89.46;98582.50;5052395;28;19963;-81
2023/05/11 11:23:43;;;;;;;;;;;;;;;14.70;88.65;98581.63;5047050;28;19932;-81
2023/05/11 11:26:14;;;;;;;;;;;;;;;14.29;87.93;98583.78;5053433;28;19959;-81
2023/05/11 11:29:01;;;;;;;;;;;;;;;13.99;88.43;98590.13;5034246;28;19921;-80
2023/05/11 11:31:27;;;;;;;;;;;;;;;14.00;89.13;98588.25;5053982;28;19928;-80
2023/05/11 11:33:57;;;;;;;;;;;;;;;13.91;89.85;98590.69;5042870;28;19921;-80
2023/05/11 11:36:41;;;;;;;;;;;;;;;14.27;89.97;98577.88;5054194;28;19927;-81
2023/05/11 11:39:06;;;;;;;;;;;;;;;14.46;89.48;98589.56;5031000;28;20384;-81
2023/05/11 11:41:32;;;;;;;;;;;;;;;14.15;90.24;98588.94;5035561;28;19927;-81
2023/05/11 11:43:58;;;;;;;;;;;;;;;14.14;90.90;98591.91;5036424;28;19928;-81
2023/05/11 11:46:27;;;;;;;;;;;;;;;14.11;89.88;98585.22;5043107;28;19924;-80
2023/05/11 11:49:05;;;;;;;;;;;;;;;14.43;88.66;98581.28;5052183;28;19913;-80
2023/05/11 11:51:32;;;;;;;;;;;;;;;14.15;88.85;98586.25;5034930;28;19942;-80
2023/05/11 11:53:58;;;;;;;;;;;;;;;14.55;89.24;98587.09;5036248;28;19920;-80
2023/05/11 11:56:23;;;;;;;;;;;;;;;14.55;87.71;98584.41;5045269;28;19917;-80
2023/05/11 11:58:48;;;;;;;;;;;;;;;14.79;87.62;98588.78;5031987;28;20011;-80
2023/05/11 12:01:14;;;;;;;;;;;;;;;14.72;85.94;98585.59;5033445;28;20425;-81
2023/05/11 12:03:40;;;;;;;;;;;;;;;14.50;86.20;98579.91;5032042;28;20419;-81
2023/05/11 12:06:12;;;;;;;;;;;;;;;14.81;86.55;98591.19;5030356;28;20837;-80
2023/05/11 12:08:41;;;;;;;;;;;;;;;14.63;84.93;98590.00;5041548;28;20023;-81
2023/05/11 12:11:07;;;;;;;;;;;;;;;14.29;86.57;98589.16;5040314;28;20102;-80
2023/05/11 12:13:34;;;;;;;;;;;;;;;14.51;88.00;98592.22;5032665;28;20448;-81
2023/05/11 12:16:08;;;;;;;;;;;;;;;14.40;87.59;98589.88;5051509;28;20560;-81
2023/05/11 12:18:33;;;;;;;;;;;;;;;14.30;88.02;98590.78;5034521;28;19917;-81
2023/05/11 12:20:59;;;;;;;;;;;;;;;14.28;89.45;98591.00;5041300;28;20396;-81
2023/05/11 12:23:25;;;;;;;;;;;;;;;14.37;88.03;98582.41;5014182;28;20043;-81
2023/05/11 12:26:01;;;;;;;;;;;;;;;14.45;88.70;98587.97;5031366;28;19916;-81
2023/05/11 12:28:26;;;;;;;;;;;;;;;14.29;90.50;98586.47;5048456;28;19917;-81
2023/05/11 12:30:55;;;;;;;;;;;;;;;14.12;90.86;98594.06;5030311;28;20427;-81
2023/05/11 12:33:21;;;;;;;;;;;;;;;14.59;90.41;98585.47;5017526;28;19924;-81
2023/05/11 12:35:50;;;;;;;;;;;;;;;13.92;89.91;98591.47;5051018;28;20369;-81
2023/05/11 12:38:15;;;;;;;;;;;;;;;14.67;90.60;98580.31;5032868;28;20361;-80
2023/05/11 12:40:45;;;;;;;;;;;;;;;14.06;89.02;98582.56;5015896;28;19925;-80
2023/05/11 12:43:15;;;;;;;;;;;;;;;14.05;90.78;98580.16;5028391;28;19917;-81
2023/05/11 12:45:40;;;;;;;;;;;;;;;14.16;91.77;98579.00;5049262;28;20428;-81